createdAt,value
2018-06-12T00:00:07.756Z,14.54
2018-06-12T00:02:36.066Z,14.58
2018-06-12T00:05:04.773Z,14.55
2018-06-12T00:07:33.086Z,14.25
2018-06-12T00:10:01.353Z,14.30
2018-06-12T00:12:29.672Z,14.22
2018-06-12T00:14:57.953Z,14.37
2018-06-12T00:17:26.333Z,14.56
2018-06-12T00:19:54.650Z,14.31
2018-06-12T00:22:22.925Z,14.23
2018-06-12T00:24:52.341Z,14.10
2018-06-12T00:27:20.632Z,14.24
2018-06-12T00:29:48.941Z,14.25
2018-06-12T00:32:17.221Z,14.26
2018-06-12T00:34:45.541Z,14.45
2018-06-12T00:37:13.847Z,14.41
2018-06-12T00:39:42.153Z,14.36
2018-06-12T00:42:11.538Z,14.34
2018-06-12T00:44:39.849Z,14.66
2018-06-12T00:47:08.275Z,14.37
2018-06-12T00:49:36.577Z,14.39
2018-06-12T00:52:04.865Z,14.21
2018-06-12T00:54:35.254Z,14.19
2018-06-12T00:57:07.843Z,14.37
2018-06-12T00:59:36.165Z,14.33
2018-06-12T01:02:04.945Z,14.41
2018-06-12T01:04:33.257Z,14.50
2018-06-12T01:07:01.561Z,14.42
2018-06-12T01:09:29.892Z,14.28
2018-06-12T01:11:58.210Z,14.52
2018-06-12T01:14:27.517Z,14.61
2018-06-12T01:16:55.825Z,14.42
2018-06-12T01:19:25.205Z,14.28
2018-06-12T01:21:53.905Z,14.38
2018-06-12T01:24:22.217Z,14.51
2018-06-12T01:26:50.535Z,14.40
2018-06-12T01:29:19.178Z,14.39
2018-06-12T01:31:47.498Z,14.27
2018-06-12T01:34:15.778Z,14.27
2018-06-12T01:36:44.105Z,14.29
2018-06-12T01:39:12.398Z,14.44
2018-06-12T01:41:40.688Z,14.48
2018-06-12T01:44:08.957Z,14.65
2018-06-12T01:46:37.259Z,14.49
2018-06-12T01:49:05.564Z,14.47
2018-06-12T01:51:33.862Z,14.51
2018-06-12T01:54:02.137Z,14.41
2018-06-12T01:56:30.437Z,14.25
2018-06-12T01:58:58.773Z,14.15
2018-06-12T02:01:27.153Z,14.17
2018-06-12T02:03:55.448Z,14.26
2018-06-12T02:06:23.788Z,14.31
2018-06-12T02:08:52.109Z,14.26
2018-06-12T02:11:20.439Z,14.29
2018-06-12T02:13:48.766Z,14.36
2018-06-12T02:16:17.117Z,14.23
2018-06-12T02:18:45.447Z,14.33
2018-06-12T02:21:13.793Z,14.39
2018-06-12T02:23:42.149Z,14.40
2018-06-12T02:26:10.457Z,14.48
2018-06-12T02:28:38.763Z,14.39
2018-06-12T02:31:07.107Z,14.45
2018-06-12T02:33:35.409Z,14.47
2018-06-12T02:36:03.689Z,14.24
2018-06-12T02:38:32.376Z,14.33
2018-06-12T02:41:00.659Z,14.32
2018-06-12T02:43:28.938Z,14.34
2018-06-12T02:45:57.245Z,14.42
2018-06-12T02:48:25.514Z,14.56
2018-06-12T02:50:53.832Z,14.62
2018-06-12T02:53:23.162Z,14.47
2018-06-12T02:55:51.465Z,14.51
2018-06-12T02:58:19.739Z,14.38
2018-06-12T03:00:48.053Z,14.54
2018-06-12T03:03:16.373Z,14.50
2018-06-12T03:05:44.689Z,14.46
2018-06-12T03:08:13.000Z,14.41
2018-06-12T03:10:41.309Z,14.43
2018-06-12T03:13:11.645Z,14.49
2018-06-12T03:15:39.991Z,14.48
2018-06-12T03:18:08.699Z,14.51
2018-06-12T03:20:46.537Z,14.66
2018-06-12T03:23:14.843Z,14.77
2018-06-12T03:25:43.216Z,14.61
2018-06-12T03:28:11.508Z,14.53
2018-06-12T03:30:39.854Z,14.55
2018-06-12T03:33:08.202Z,14.65
2018-06-12T03:35:36.489Z,14.50
2018-06-12T03:38:04.803Z,14.64
2018-06-12T03:40:33.109Z,14.80
2018-06-12T03:43:01.662Z,14.69
2018-06-12T03:45:31.982Z,14.48
2018-06-12T03:48:00.273Z,14.80
2018-06-12T03:50:29.557Z,14.90
2018-06-12T03:52:57.877Z,14.90
2018-06-12T03:55:28.170Z,14.92
2018-06-12T03:58:00.585Z,14.94
2018-06-12T04:00:29.976Z,14.99
2018-06-12T04:02:58.262Z,14.93
2018-06-12T04:05:26.581Z,14.63
2018-06-12T04:07:54.913Z,14.78
2018-06-12T04:10:23.185Z,14.74
2018-06-12T04:12:55.393Z,14.81
2018-06-12T04:15:23.680Z,15.13
2018-06-12T04:17:52.005Z,15.21
2018-06-12T04:20:21.293Z,14.82
2018-06-12T04:22:49.565Z,14.92
2018-06-12T04:25:17.915Z,14.87
2018-06-12T04:27:46.201Z,15.18
2018-06-12T04:30:15.593Z,15.30
2018-06-12T04:32:43.857Z,15.11
2018-06-12T04:35:12.169Z,14.92
2018-06-12T04:37:40.441Z,14.78
2018-06-12T04:40:08.753Z,14.90
2018-06-12T04:42:38.121Z,14.96
2018-06-12T04:45:06.429Z,14.71
2018-06-12T04:47:34.718Z,14.97
2018-06-12T04:50:04.149Z,14.81
2018-06-12T04:52:32.439Z,14.43
2018-06-12T04:55:00.909Z,14.68
2018-06-12T04:57:29.178Z,14.74
2018-06-12T04:59:58.639Z,14.78
2018-06-12T05:02:26.929Z,14.57
2018-06-12T05:04:55.201Z,14.97
2018-06-12T05:07:23.506Z,15.16
2018-06-12T05:09:51.889Z,14.96
2018-06-12T05:12:20.196Z,14.91
2018-06-12T05:14:49.467Z,15.05
2018-06-12T05:17:17.766Z,14.90
2018-06-12T05:19:46.037Z,15.03
2018-06-12T05:22:15.329Z,15.18
2018-06-12T05:24:43.641Z,15.18
2018-06-12T05:27:11.950Z,15.00
2018-06-12T05:29:40.217Z,15.02
2018-06-12T05:32:08.526Z,14.73
2018-06-12T05:34:37.801Z,14.81
2018-06-12T05:37:06.118Z,14.95
2018-06-12T05:39:34.397Z,15.10
2018-06-12T05:42:02.703Z,14.79
2018-06-12T05:44:30.986Z,14.62
2018-06-12T05:46:59.289Z,14.99
2018-06-12T05:49:28.644Z,15.31
2018-06-12T05:51:56.982Z,15.55
2018-06-12T05:54:25.245Z,15.34
2018-06-12T05:56:53.524Z,15.13
2018-06-12T05:59:21.820Z,14.95
2018-06-12T06:01:52.353Z,15.06
2018-06-12T06:04:21.689Z,14.87
2018-06-12T06:06:50.073Z,14.97
2018-06-12T06:09:18.477Z,14.82
2018-06-12T06:11:46.802Z,15.18
2018-06-12T06:14:15.121Z,15.29
2018-06-12T06:16:43.475Z,15.55
2018-06-12T06:19:11.941Z,15.28
2018-06-12T06:21:40.328Z,15.52
2018-06-12T06:24:09.668Z,15.70
2018-06-12T06:26:41.073Z,15.37
2018-06-12T06:29:12.965Z,15.53
2018-06-12T06:31:41.333Z,15.73
2018-06-12T06:52:28.997Z,15.07
2018-06-12T06:54:59.699Z,15.35
2018-06-12T06:57:33.459Z,15.54
2018-06-12T07:00:04.686Z,15.43
2018-06-12T07:02:39.126Z,15.71
2018-06-12T07:05:07.731Z,15.79
2018-06-12T07:07:36.029Z,15.76
2018-06-12T07:10:05.325Z,15.67
2018-06-12T07:12:33.736Z,16.31
2018-06-12T07:18:10.965Z,16.13
2018-06-12T07:21:20.609Z,16.08
2018-06-12T07:23:48.911Z,15.76
2018-06-12T07:26:17.313Z,15.70
2018-06-12T07:28:45.590Z,15.92
2018-06-12T07:31:13.860Z,15.92
2018-06-12T07:33:42.269Z,15.79
2018-06-12T07:36:10.529Z,15.62
2018-06-12T07:38:38.826Z,16.44
2018-06-12T07:41:07.085Z,16.40
2018-06-12T07:43:35.483Z,15.97
2018-06-12T07:46:04.937Z,16.45
2018-06-12T07:48:33.253Z,16.34
2018-06-12T07:51:01.599Z,16.16
2018-06-12T07:53:29.885Z,16.09
2018-06-12T07:55:58.246Z,16.62
2018-06-12T07:58:26.548Z,16.36
2018-06-12T08:00:54.929Z,16.10
2018-06-12T08:03:23.312Z,16.38
2018-06-12T08:05:51.703Z,16.27
2018-06-12T08:08:22.099Z,17.12
2018-06-12T08:10:50.493Z,17.38
2018-06-12T08:13:18.842Z,17.16
2018-06-12T08:15:47.116Z,17.55
2018-06-12T08:18:15.364Z,17.91
2018-06-12T08:20:44.725Z,17.28
2018-06-12T08:23:12.973Z,16.57
2018-06-12T08:25:41.284Z,16.81
2018-06-12T08:32:59.508Z,17.56
2018-06-12T08:35:27.798Z,17.82
2018-06-12T08:37:56.070Z,17.83
2018-06-12T08:40:24.389Z,16.70
2018-06-12T08:42:52.637Z,16.84
2018-06-12T08:45:20.890Z,16.67
2018-06-12T08:47:49.165Z,16.71
2018-06-12T08:50:17.417Z,16.61
2018-06-12T08:52:45.749Z,16.95
2018-06-12T08:55:15.067Z,17.09
2018-06-12T08:57:43.347Z,17.10
2018-06-12T09:00:11.685Z,17.12
2018-06-12T09:02:40.029Z,17.02
2018-06-12T09:05:08.277Z,17.42
2018-06-12T09:07:36.621Z,17.23
2018-06-12T09:10:04.992Z,17.22
2018-06-12T09:12:33.277Z,17.07
2018-06-12T09:15:01.543Z,17.08
2018-06-12T09:17:30.865Z,17.10
2018-06-12T09:19:59.216Z,17.48
2018-06-12T09:22:27.500Z,17.67
2018-06-12T09:24:55.821Z,18.03
2018-06-12T09:27:24.153Z,17.61
2018-06-12T09:29:53.442Z,17.18
2018-06-12T09:32:21.693Z,17.61
2018-06-12T09:34:51.149Z,18.12
2018-06-12T09:37:19.430Z,17.79
2018-06-12T09:39:47.745Z,18.26
2018-06-12T09:42:16.042Z,18.22
2018-06-12T09:44:44.458Z,17.20
2018-06-12T09:47:12.717Z,17.78
2018-06-12T09:49:41.030Z,17.49
2018-06-12T09:52:09.298Z,16.77
2018-06-12T09:54:37.598Z,17.14
2018-06-12T09:57:06.057Z,16.98
2018-06-12T09:59:34.379Z,17.10
2018-06-12T10:02:02.665Z,17.26
2018-06-12T10:04:31.997Z,17.03
2018-06-12T10:07:00.289Z,17.24
2018-06-12T10:09:28.598Z,17.91
2018-06-12T10:11:56.888Z,17.26
2018-06-12T10:14:25.197Z,17.68
2018-06-12T10:16:53.457Z,17.72
2018-06-12T10:19:21.753Z,17.44
2018-06-12T10:21:50.093Z,17.01
2018-06-12T10:24:19.445Z,16.73
2018-06-12T10:26:48.824Z,17.40
2018-06-12T10:29:17.246Z,18.12
2018-06-12T10:31:46.640Z,18.21
2018-06-12T10:34:14.904Z,17.87
2018-06-12T10:36:43.193Z,18.17
2018-06-12T10:39:11.496Z,17.85
2018-06-12T10:41:39.823Z,17.73
2018-06-12T10:44:09.102Z,17.88
2018-06-12T10:46:37.510Z,18.15
2018-06-12T10:49:06.048Z,18.02
2018-06-12T10:51:34.362Z,18.39
2018-06-12T10:54:02.736Z,18.53
2018-06-12T10:56:31.089Z,18.55
2018-06-12T10:58:59.317Z,18.77
2018-06-12T11:01:27.624Z,19.18
2018-06-12T11:03:55.884Z,18.98
2018-06-12T11:06:24.617Z,18.40
2018-06-12T11:08:52.905Z,18.37
2018-06-12T11:11:21.217Z,17.63
2018-06-12T11:13:49.657Z,18.01
2018-06-12T11:16:18.020Z,18.48
2018-06-12T11:18:46.301Z,19.00
2018-06-12T11:21:15.549Z,19.46
2018-06-12T11:23:43.841Z,19.40
2018-06-12T11:26:12.258Z,19.35
2018-06-12T11:28:40.574Z,18.26
2018-06-12T11:31:08.901Z,18.39
2018-06-12T11:33:37.246Z,17.64
2018-06-12T11:36:05.517Z,17.49
2018-06-12T11:38:33.821Z,17.31
2018-06-12T11:41:02.109Z,17.76
2018-06-12T11:43:30.406Z,17.92
2018-06-12T11:45:58.686Z,17.92
2018-06-12T11:48:26.981Z,18.50
2018-06-12T11:50:56.438Z,19.49
2018-06-12T11:53:24.713Z,19.75
2018-06-12T11:55:52.997Z,18.98
2018-06-12T11:58:21.317Z,18.65
2018-06-12T12:00:49.609Z,18.21
2018-06-12T12:03:17.890Z,18.55
2018-06-12T12:05:46.197Z,18.64
2018-06-12T12:08:14.465Z,18.43
2018-06-12T12:10:42.811Z,18.82
2018-06-12T12:13:11.138Z,20.38
2018-06-12T12:15:40.460Z,21.26
2018-06-12T12:18:09.941Z,20.16
2018-06-12T12:20:38.253Z,19.28
2018-06-12T12:23:06.522Z,19.20
2018-06-12T12:25:35.913Z,19.04
2018-06-12T12:28:04.253Z,19.22
2018-06-12T12:30:32.541Z,19.07
2018-06-12T12:33:00.813Z,18.11
2018-06-12T12:35:29.129Z,17.63
2018-06-12T12:37:57.557Z,17.85
2018-06-12T12:40:25.909Z,17.91
2018-06-12T12:42:54.231Z,18.38
2018-06-12T12:45:22.510Z,18.78
2018-06-12T12:47:50.821Z,18.01
2018-06-12T12:50:19.155Z,18.64
2018-06-12T12:52:47.469Z,18.79
2018-06-12T12:55:15.837Z,19.17
2018-06-12T12:57:44.221Z,19.52
2018-06-12T13:00:12.582Z,20.35
2018-06-12T13:02:41.985Z,19.62
2018-06-12T13:05:10.361Z,19.45
2018-06-12T13:07:38.777Z,19.05
2018-06-12T13:10:07.122Z,18.27
2018-06-12T13:12:35.409Z,18.52
2018-06-12T13:15:03.789Z,18.08
2018-06-12T13:17:32.207Z,18.08
2018-06-12T13:20:00.622Z,17.70
2018-06-12T13:22:28.917Z,17.98
2018-06-12T13:24:57.308Z,18.04
2018-06-12T13:27:25.689Z,18.27
2018-06-12T13:29:54.045Z,18.17
2018-06-12T13:32:22.324Z,18.44
2018-06-12T13:34:50.650Z,19.01
2018-06-12T13:37:19.990Z,19.28
2018-06-12T13:39:48.394Z,18.50
2018-06-12T13:42:16.833Z,18.91
2018-06-12T13:44:49.591Z,18.68
2018-06-12T13:47:17.921Z,18.23
2018-06-12T13:49:47.252Z,17.84
2018-06-12T13:52:15.584Z,17.24
2018-06-12T13:54:45.989Z,17.17
2018-06-12T13:57:14.321Z,17.61
2018-06-12T13:59:42.687Z,17.62
2018-06-12T14:02:11.981Z,17.93
2018-06-12T14:04:40.325Z,18.59
2018-06-12T14:07:08.715Z,18.89
2018-06-12T14:09:37.023Z,19.74
2018-06-12T14:12:05.381Z,19.13
2018-06-12T14:14:35.097Z,19.10
2018-06-12T14:17:03.466Z,18.49
2018-06-12T14:19:31.858Z,18.51
2018-06-12T14:22:00.305Z,18.53
2018-06-12T14:24:28.609Z,18.07
2018-06-12T14:26:57.962Z,17.79
2018-06-12T14:29:26.218Z,18.08
2018-06-12T14:31:54.595Z,18.13
2018-06-12T14:34:22.954Z,17.92
2018-06-12T14:36:51.369Z,17.70
2018-06-12T14:39:19.706Z,17.76
2018-06-12T14:41:49.047Z,17.73
2018-06-12T14:44:17.413Z,17.88
2018-06-12T14:46:46.814Z,17.93
2018-06-12T14:49:15.102Z,18.06
2018-06-12T14:51:43.462Z,17.88
2018-06-12T14:54:11.817Z,18.00
2018-06-12T14:56:40.217Z,18.19
2018-06-12T14:59:08.591Z,18.01
2018-06-12T15:01:36.880Z,17.96
2018-06-12T15:04:05.301Z,17.78
2018-06-12T15:06:33.628Z,17.80
2018-06-12T15:09:01.984Z,17.08
2018-06-12T15:11:31.345Z,17.12
2018-06-12T15:13:59.648Z,17.18
2018-06-12T15:16:27.933Z,16.98
2018-06-12T15:18:57.323Z,17.13
2018-06-12T15:21:25.538Z,17.43
2018-06-12T15:23:53.820Z,17.28
2018-06-12T15:26:23.162Z,18.02
2018-06-12T15:28:51.457Z,17.86
2018-06-12T15:31:19.711Z,17.75
2018-06-12T15:33:48.049Z,17.36
2018-06-12T15:36:16.386Z,17.25
2018-06-12T15:43:34.559Z,17.69
2018-06-12T15:46:02.820Z,17.20
2018-06-12T15:48:31.138Z,17.25
2018-06-12T15:50:59.509Z,17.30
2018-06-12T15:53:37.773Z,17.20
2018-06-12T15:56:06.147Z,16.86
2018-06-12T15:58:34.364Z,17.13
2018-06-12T16:01:02.656Z,17.26
2018-06-12T16:03:32.990Z,17.53
2018-06-12T16:06:01.295Z,17.84
2018-06-12T16:08:29.576Z,17.05
2018-06-12T16:10:57.858Z,16.78
2018-06-12T16:13:26.146Z,16.59
2018-06-12T16:15:54.426Z,16.81
2018-06-12T16:18:22.691Z,17.02
2018-06-12T16:20:52.061Z,16.84
2018-06-12T16:23:20.309Z,17.14
2018-06-12T16:25:48.625Z,16.83
2018-06-12T16:28:17.957Z,17.03
2018-06-12T16:30:47.381Z,16.89
2018-06-12T16:33:15.856Z,16.63
2018-06-12T16:35:44.141Z,16.72
2018-06-12T16:38:12.406Z,16.76
2018-06-12T16:40:40.677Z,16.64
2018-06-12T16:43:08.951Z,16.91
2018-06-12T16:45:37.234Z,16.37
2018-06-12T16:48:05.940Z,16.57
2018-06-12T16:50:34.210Z,17.21
2018-06-12T16:53:03.527Z,17.18
2018-06-12T16:55:31.774Z,16.84
2018-06-12T16:58:00.077Z,16.84
2018-06-12T17:00:28.410Z,16.60
2018-06-12T17:02:56.705Z,16.11
2018-06-12T17:05:24.981Z,16.18
2018-06-12T17:07:54.385Z,16.37
2018-06-12T17:10:22.666Z,16.60
2018-06-12T17:12:51.001Z,16.20
2018-06-12T17:15:19.360Z,16.48
2018-06-12T17:17:48.717Z,16.34
2018-06-12T17:20:16.996Z,16.13
2018-06-12T17:22:45.251Z,16.39
2018-06-12T17:25:13.565Z,16.37
2018-06-12T17:27:43.889Z,16.23
2018-06-12T17:30:12.265Z,16.09
2018-06-12T17:32:40.541Z,16.26
2018-06-12T17:35:08.841Z,15.98
2018-06-12T17:37:37.133Z,15.91
2018-06-12T17:40:05.467Z,15.71
2018-06-12T17:42:33.749Z,15.71
2018-06-12T17:45:02.058Z,15.93
2018-06-12T17:47:30.337Z,15.74
2018-06-12T17:49:58.632Z,16.02
2018-06-12T17:52:26.905Z,15.98
2018-06-12T17:54:55.220Z,16.01
2018-06-12T17:57:23.481Z,16.25
2018-06-12T17:59:51.786Z,16.36
2018-06-12T18:02:20.134Z,15.96
2018-06-12T18:04:48.425Z,16.01
2018-06-12T18:07:16.822Z,15.98
2018-06-12T18:09:45.164Z,15.57
2018-06-12T18:12:13.467Z,15.27
2018-06-12T18:14:41.827Z,15.07
2018-06-12T18:17:10.241Z,15.10
2018-06-12T18:19:38.589Z,15.13
2018-06-12T18:22:06.925Z,15.43
2018-06-12T18:24:35.236Z,15.49
2018-06-12T18:27:03.649Z,15.51
2018-06-12T18:29:33.013Z,15.53
2018-06-12T18:32:01.331Z,15.11
2018-06-12T18:34:29.601Z,15.31
2018-06-12T18:36:58.873Z,15.54
2018-06-12T18:39:27.153Z,15.25
2018-06-12T18:41:55.507Z,15.22
2018-06-12T18:44:25.879Z,15.35
2018-06-12T18:46:54.214Z,15.38
2018-06-12T18:49:22.496Z,15.21
2018-06-12T18:51:50.764Z,15.31
2018-06-12T18:54:19.062Z,15.37
2018-06-12T18:56:47.414Z,15.22
2018-06-12T18:59:15.809Z,15.05
2018-06-12T19:01:45.099Z,14.76
2018-06-12T19:04:15.451Z,14.64
2018-06-12T19:06:43.891Z,14.52
2018-06-12T19:09:12.124Z,14.56
2018-06-12T19:11:40.501Z,14.52
2018-06-12T19:14:08.863Z,14.62
2018-06-12T19:16:37.249Z,14.58
2018-06-12T19:19:05.961Z,14.61
2018-06-12T19:21:35.289Z,14.73
2018-06-12T19:24:03.549Z,14.87
2018-06-12T19:26:31.897Z,15.12
2018-06-12T19:29:00.117Z,15.05
2018-06-12T19:31:28.433Z,15.00
2018-06-12T19:33:56.690Z,15.09
2018-06-12T19:36:25.013Z,14.70
2018-06-12T19:38:53.329Z,14.59
2018-06-12T19:41:21.654Z,14.65
2018-06-12T19:43:49.990Z,14.56
2018-06-12T19:46:18.286Z,14.52
2018-06-12T19:48:46.579Z,14.34
2018-06-12T19:51:14.894Z,14.57
2018-06-12T19:53:43.222Z,14.66
2018-06-12T19:56:12.553Z,14.64
2018-06-12T19:58:40.807Z,14.74
2018-06-12T20:01:09.181Z,14.89
2018-06-12T20:03:37.595Z,14.47
2018-06-12T20:06:06.954Z,14.48
2018-06-12T20:08:35.349Z,14.58
2018-06-12T20:11:04.624Z,14.68
2018-06-12T20:13:33.053Z,14.55
2018-06-12T20:16:01.461Z,14.45
2018-06-12T20:18:29.781Z,14.39
2018-06-12T20:20:58.130Z,14.41
2018-06-12T20:23:26.421Z,14.35
2018-06-12T20:26:58.104Z,14.26
2018-06-12T20:29:26.490Z,14.25
2018-06-12T20:31:54.821Z,14.20
2018-06-12T20:34:23.109Z,14.20
2018-06-12T20:36:52.412Z,14.20
2018-06-12T20:39:20.744Z,14.08
2018-06-12T20:41:49.065Z,13.91
2018-06-12T20:44:17.376Z,14.12
2018-06-12T20:46:45.761Z,14.31
2018-06-12T20:49:14.008Z,14.52
2018-06-12T20:51:42.353Z,14.31
2018-06-12T20:54:10.787Z,14.18
2018-06-12T20:56:39.065Z,14.13
2018-06-12T20:59:09.537Z,14.30
2018-06-12T21:01:37.927Z,14.05
2018-06-12T21:04:06.498Z,14.12
2018-06-12T21:06:34.833Z,14.33
2018-06-12T21:09:03.579Z,14.44
2018-06-12T21:11:32.054Z,13.93
2018-06-12T21:14:00.481Z,14.06
2018-06-12T21:16:29.889Z,13.96
2018-06-12T21:18:58.220Z,14.09
2018-06-12T21:21:27.533Z,13.91
2018-06-12T21:23:55.880Z,13.78
2018-06-12T21:26:24.221Z,13.92
2018-06-12T21:28:52.543Z,13.89
2018-06-12T21:31:20.933Z,14.05
2018-06-12T21:33:49.381Z,13.82
2018-06-12T21:36:17.709Z,13.79
2018-06-12T21:38:46.139Z,13.86
2018-06-12T21:41:14.505Z,13.83
2018-06-12T21:43:42.862Z,13.66
2018-06-12T21:46:11.094Z,13.56
2018-06-12T21:48:39.431Z,13.61
2018-06-12T21:51:07.716Z,13.66
2018-06-12T21:53:36.049Z,13.91
2018-06-12T21:56:04.402Z,13.65
2018-06-12T21:58:32.777Z,13.85
2018-06-12T22:01:01.161Z,13.58
2018-06-12T22:03:29.497Z,13.40
2018-06-12T22:05:57.773Z,13.51
2018-06-12T22:08:26.073Z,13.34
2018-06-12T22:10:54.351Z,13.39
2018-06-12T22:13:22.634Z,13.40
2018-06-12T22:15:50.921Z,13.38
2018-06-12T22:18:19.234Z,13.36
2018-06-12T22:20:47.497Z,13.26
2018-06-12T22:23:15.758Z,13.08
2018-06-12T22:25:44.041Z,13.07
2018-06-12T22:28:12.338Z,13.19
2018-06-12T22:30:40.634Z,13.23
2018-06-12T22:33:09.084Z,13.10
2018-06-12T22:35:37.365Z,12.98
2018-06-12T22:38:05.640Z,12.99
2018-06-12T22:40:33.941Z,13.05
2018-06-12T22:43:02.222Z,13.07
2018-06-12T22:45:30.520Z,13.01
2018-06-12T22:48:05.261Z,13.14
2018-06-12T22:50:33.618Z,12.88
2018-06-12T22:53:01.885Z,12.96
2018-06-12T22:55:30.306Z,13.01
2018-06-12T22:57:59.165Z,13.07
2018-06-12T23:00:27.465Z,12.94
2018-06-12T23:02:55.737Z,13.01
2018-06-12T23:05:24.056Z,12.98
2018-06-12T23:07:54.221Z,12.90
2018-06-12T23:10:26.504Z,12.94
2018-06-12T23:12:54.778Z,12.97
2018-06-12T23:15:23.115Z,12.72
2018-06-12T23:17:51.425Z,12.72
2018-06-12T23:20:31.029Z,12.83
2018-06-12T23:22:59.390Z,12.84
2018-06-12T23:25:28.781Z,12.78
2018-06-12T23:27:57.151Z,12.86
2018-06-12T23:30:26.447Z,12.82
2018-06-12T23:32:54.807Z,12.84
2018-06-12T23:35:23.099Z,12.91
2018-06-12T23:37:51.425Z,12.66
2018-06-12T23:40:20.084Z,12.62
2018-06-12T23:42:48.396Z,12.80
2018-06-12T23:45:17.773Z,12.81
2018-06-12T23:47:46.105Z,12.95
2018-06-12T23:50:15.406Z,12.86
2018-06-12T23:52:43.781Z,12.95
2018-06-12T23:55:13.146Z,13.01
2018-06-12T23:57:41.519Z,12.81
